createdAt,value
2022-08-20T00:02:22.730Z,48.10
2022-08-20T00:04:54.673Z,53.17
2022-08-20T00:07:23.434Z,58.85
2022-08-20T00:09:52.197Z,56.17
2022-08-20T00:12:24.893Z,51.88
2022-08-20T00:14:55.081Z,52.38
2022-08-20T00:17:23.735Z,50.08
2022-08-20T00:19:52.480Z,43.63
2022-08-20T00:22:21.244Z,41.08
2022-08-20T00:24:49.959Z,40.05
2022-08-20T00:27:18.688Z,42.03
2022-08-20T00:29:47.322Z,46.08
2022-08-20T00:32:17.425Z,38.85
2022-08-20T00:34:46.090Z,46.15
2022-08-20T00:37:14.768Z,45.85
2022-08-20T00:39:43.705Z,44.47
2022-08-20T00:42:12.724Z,124.38
2022-08-20T00:44:47.876Z,92.82
2022-08-20T00:47:18.060Z,74.82
2022-08-20T00:49:46.977Z,53.83
2022-08-20T00:52:21.443Z,70.10
2022-08-20T00:54:53.676Z,113.03
2022-08-20T00:57:26.074Z,176.80
2022-08-20T00:59:55.635Z,152.40
2022-08-20T01:02:28.123Z,106.15
2022-08-20T01:04:57.733Z,53.88
2022-08-20T01:07:32.824Z,78.13
2022-08-20T01:10:03.235Z,60.15
2022-08-20T01:12:32.843Z,46.30
2022-08-20T01:15:04.028Z,50.92
2022-08-20T01:17:37.680Z,75.72
2022-08-20T01:20:12.363Z,41.30
2022-08-20T01:23:03.710Z,68.38
2022-08-20T01:25:49.440Z,93.43
2022-08-20T01:28:21.514Z,22.30
2022-08-20T01:30:50.274Z,21.73
2022-08-20T01:33:20.157Z,22.48
2022-08-20T01:35:49.995Z,25.90
2022-08-20T01:38:19.403Z,23.52
2022-08-20T01:41:08.861Z,26.58
2022-08-20T01:43:37.521Z,22.58
2022-08-20T01:46:06.997Z,28.25
2022-08-20T01:48:35.805Z,22.17
2022-08-20T01:51:07.997Z,30.63
2022-08-20T01:53:39.308Z,35.63
2022-08-20T01:56:14.504Z,32.90
2022-08-20T01:58:45.646Z,27.00
2022-08-20T02:01:23.029Z,30.08
2022-08-20T02:03:52.434Z,34.05
2022-08-20T02:06:25.086Z,31.92
2022-08-20T02:08:55.945Z,44.17
2022-08-20T02:11:26.417Z,42.70
2022-08-20T02:13:55.883Z,32.55
2022-08-20T02:16:29.474Z,30.20
2022-08-20T02:19:01.459Z,21.80
2022-08-20T02:21:34.665Z,23.63
2022-08-20T02:24:03.388Z,23.45
2022-08-20T02:26:33.665Z,19.33
2022-08-20T02:29:03.597Z,19.20
2022-08-20T02:31:34.930Z,26.20
2022-08-20T02:34:22.179Z,22.67
2022-08-20T02:36:51.452Z,22.98
2022-08-20T02:39:20.239Z,23.35
2022-08-20T02:41:51.022Z,19.85
2022-08-20T02:44:21.253Z,24.65
2022-08-20T02:46:50.968Z,27.80
2022-08-20T02:49:20.971Z,20.23
2022-08-20T02:51:49.903Z,19.13
2022-08-20T02:54:18.556Z,19.90
2022-08-20T02:56:47.707Z,21.27
2022-08-20T02:59:19.644Z,22.80
2022-08-20T03:01:59.653Z,21.20
2022-08-20T03:04:29.686Z,22.45
2022-08-20T03:06:58.455Z,25.13
2022-08-20T03:09:27.323Z,26.17
2022-08-20T03:11:56.040Z,22.27
2022-08-20T03:14:26.956Z,22.15
2022-08-20T03:16:56.165Z,21.20
2022-08-20T03:19:24.835Z,24.05
2022-08-20T03:21:53.564Z,24.13
2022-08-20T03:24:22.304Z,22.73
2022-08-20T03:26:51.129Z,25.20
2022-08-20T03:29:19.794Z,22.35
2022-08-20T03:31:52.400Z,23.40
2022-08-20T03:34:21.199Z,22.85
2022-08-20T03:36:49.952Z,22.30
2022-08-20T03:39:18.656Z,19.88
2022-08-20T03:41:47.416Z,19.60
2022-08-20T03:44:16.076Z,18.05
2022-08-20T03:46:44.766Z,17.50
2022-08-20T03:49:28.219Z,21.65
2022-08-20T03:51:58.143Z,22.73
2022-08-20T03:54:31.604Z,21.17
2022-08-20T03:57:01.182Z,23.35
2022-08-20T03:59:30.108Z,24.90
2022-08-20T04:01:58.989Z,30.48
2022-08-20T04:04:29.172Z,25.63
2022-08-20T04:06:57.970Z,25.33
2022-08-20T04:09:26.622Z,21.92
2022-08-20T04:12:01.127Z,23.45
2022-08-20T04:14:30.104Z,23.70
2022-08-20T04:16:58.829Z,21.70
2022-08-20T04:19:32.487Z,27.90
2022-08-20T04:22:03.241Z,25.83
2022-08-20T04:24:32.705Z,28.60
2022-08-20T04:27:05.516Z,29.55
2022-08-20T04:29:35.598Z,23.48
2022-08-20T04:32:06.308Z,24.15
2022-08-20T04:34:37.426Z,23.33
2022-08-20T04:37:16.514Z,22.27
2022-08-20T04:40:06.473Z,23.33
2022-08-20T04:42:37.483Z,23.17
2022-08-20T04:45:09.321Z,22.60
2022-08-20T04:47:38.195Z,25.77
2022-08-20T04:50:10.846Z,31.77
2022-08-20T04:52:39.753Z,35.83
2022-08-20T04:55:09.413Z,28.27
2022-08-20T04:57:39.159Z,44.70
2022-08-20T05:00:10.751Z,35.70
2022-08-20T05:02:39.575Z,43.00
2022-08-20T05:05:10.474Z,41.70
2022-08-20T05:07:41.439Z,31.73
2022-08-20T05:10:13.782Z,40.50
2022-08-20T05:12:43.308Z,32.65
2022-08-20T05:15:26.483Z,28.38
2022-08-20T05:18:00.752Z,33.00
2022-08-20T05:20:32.849Z,30.67
2022-08-20T05:23:02.480Z,32.03
2022-08-20T05:25:32.803Z,34.90
2022-08-20T05:28:03.155Z,28.95
2022-08-20T05:30:34.310Z,28.75
2022-08-20T05:33:05.394Z,30.33
2022-08-20T05:35:39.023Z,29.25
2022-08-20T05:38:08.404Z,29.52
2022-08-20T05:40:37.631Z,30.92
2022-08-20T05:43:06.657Z,31.92
2022-08-20T05:45:37.809Z,27.75
2022-08-20T05:48:08.035Z,30.45
2022-08-20T05:50:38.686Z,36.47
2022-08-20T05:53:07.764Z,53.67
2022-08-20T05:55:37.588Z,58.05
2022-08-20T05:58:09.231Z,43.97
2022-08-20T06:00:38.323Z,43.72
2022-08-20T06:03:24.209Z,50.88
2022-08-20T06:05:54.351Z,38.47
2022-08-20T06:08:23.270Z,44.08
2022-08-20T06:10:52.399Z,50.38
2022-08-20T06:13:21.304Z,46.58
2022-08-20T06:15:50.387Z,49.08
2022-08-20T06:18:27.559Z,41.65
2022-08-20T06:20:58.807Z,48.42
2022-08-20T06:23:27.894Z,43.03
2022-08-20T06:26:16.715Z,50.10
2022-08-20T06:28:59.374Z,46.72
2022-08-20T06:31:28.667Z,34.42
2022-08-20T06:33:57.670Z,35.47
2022-08-20T06:36:27.824Z,42.95
2022-08-20T06:38:58.571Z,58.97
2022-08-20T06:41:36.918Z,45.40
2022-08-20T06:44:07.244Z,52.95
2022-08-20T06:46:36.490Z,54.53
2022-08-20T06:49:06.294Z,77.35
2022-08-20T06:51:37.746Z,32.60
2022-08-20T06:54:09.048Z,36.55
2022-08-20T06:56:38.033Z,50.92
2022-08-20T06:59:06.662Z,71.00
2022-08-20T07:01:35.812Z,58.78
2022-08-20T07:04:07.791Z,30.38
2022-08-20T07:06:37.877Z,35.63
2022-08-20T07:09:06.745Z,41.85
2022-08-20T07:11:35.459Z,87.55
2022-08-20T07:14:05.639Z,127.40
2022-08-20T07:16:34.273Z,135.23
2022-08-20T07:19:02.878Z,129.88
2022-08-20T07:21:32.674Z,133.13
2022-08-20T07:24:03.631Z,136.45
2022-08-20T07:26:32.308Z,121.47
2022-08-20T07:29:01.063Z,111.38
2022-08-20T07:31:48.150Z,112.57
2022-08-20T07:34:16.990Z,90.63
2022-08-20T07:36:50.740Z,102.63
2022-08-20T07:39:21.500Z,87.82
2022-08-20T07:42:03.337Z,85.80
2022-08-20T07:44:32.937Z,76.55
2022-08-20T07:47:01.640Z,73.05
2022-08-20T07:49:31.777Z,72.07
2022-08-20T07:52:00.418Z,71.40
2022-08-20T07:54:30.652Z,149.02
2022-08-20T07:57:03.029Z,84.35
2022-08-20T07:59:32.263Z,71.30
2022-08-20T08:02:01.099Z,56.63
2022-08-20T08:04:29.730Z,50.50
2022-08-20T08:07:00.557Z,42.17
2022-08-20T08:09:30.914Z,42.55
2022-08-20T08:12:03.059Z,43.63
2022-08-20T08:14:37.456Z,37.63
2022-08-20T08:17:09.759Z,39.65
2022-08-20T08:19:42.051Z,40.53
2022-08-20T08:22:16.541Z,408.38
2022-08-20T08:24:57.424Z,87.68
2022-08-20T08:27:26.662Z,75.18
2022-08-20T08:29:55.333Z,67.43
2022-08-20T08:32:24.709Z,66.07
2022-08-20T08:34:53.496Z,77.82
2022-08-20T08:37:22.233Z,89.55
2022-08-20T08:39:52.409Z,86.43
2022-08-20T08:42:30.535Z,90.35
2022-08-20T08:45:00.104Z,346.98
2022-08-20T08:47:34.831Z,158.20
2022-08-20T08:50:05.821Z,87.97
2022-08-20T08:52:38.338Z,69.50
2022-08-20T08:55:17.448Z,55.55
2022-08-20T08:57:48.172Z,57.05
2022-08-20T09:00:21.972Z,69.07
2022-08-20T09:03:04.480Z,68.20
2022-08-20T09:05:43.555Z,61.80
2022-08-20T09:08:17.299Z,59.50
2022-08-20T09:10:47.654Z,71.78
2022-08-20T09:13:16.552Z,64.97
2022-08-20T09:15:45.346Z,72.30
2022-08-20T09:18:14.188Z,77.53
2022-08-20T09:20:42.810Z,78.45
2022-08-20T09:23:11.592Z,126.22
2022-08-20T09:25:40.170Z,332.70
2022-08-20T09:28:10.399Z,142.75
2022-08-20T09:30:41.249Z,340.75
2022-08-20T09:33:11.778Z,152.65
2022-08-20T09:35:41.188Z,145.02
2022-08-20T09:38:09.878Z,133.48
2022-08-20T09:40:38.540Z,153.80
2022-08-20T09:43:07.378Z,164.77
2022-08-20T09:45:38.236Z,176.68
2022-08-20T09:48:10.330Z,153.60
2022-08-20T09:50:42.762Z,159.38
2022-08-20T09:53:12.416Z,176.85
2022-08-20T09:55:43.238Z,168.68
2022-08-20T09:58:19.201Z,154.48
2022-08-20T10:00:50.151Z,174.85
2022-08-20T10:03:19.211Z,154.73
2022-08-20T10:05:48.044Z,157.05
2022-08-20T10:08:16.783Z,145.80
2022-08-20T10:10:45.433Z,155.88
2022-08-20T10:13:15.382Z,144.85
2022-08-20T10:15:44.433Z,157.38
2022-08-20T10:18:14.705Z,151.52
2022-08-20T10:20:45.155Z,112.68
2022-08-20T10:23:13.925Z,119.07
2022-08-20T10:25:44.060Z,85.20
2022-08-20T10:28:12.667Z,102.53
2022-08-20T10:30:41.318Z,102.63
2022-08-20T10:33:09.868Z,89.40
2022-08-20T10:35:39.957Z,95.43
2022-08-20T10:38:08.695Z,319.70
2022-08-20T10:40:37.607Z,171.40
2022-08-20T10:43:06.347Z,129.13
2022-08-20T10:45:35.170Z,112.80
2022-08-20T10:48:07.771Z,107.70
2022-08-20T10:50:39.709Z,120.03
2022-08-20T10:53:10.768Z,125.88
2022-08-20T10:55:39.404Z,113.68
2022-08-20T10:58:11.447Z,103.38
2022-08-20T11:00:40.437Z,115.63
2022-08-20T11:03:09.206Z,115.88
2022-08-20T11:05:37.806Z,111.80
2022-08-20T11:08:08.573Z,116.65
2022-08-20T11:10:38.615Z,117.25
2022-08-20T11:13:09.089Z,120.43
2022-08-20T11:15:40.744Z,126.18
2022-08-20T11:18:10.215Z,130.50
2022-08-20T11:20:39.091Z,133.48
2022-08-20T11:23:09.263Z,120.10
2022-08-20T11:25:38.357Z,119.05
2022-08-20T11:28:08.697Z,121.13
2022-08-20T11:30:38.476Z,122.15
2022-08-20T11:33:07.479Z,141.95
2022-08-20T11:35:48.248Z,133.45
2022-08-20T11:38:19.308Z,135.15
2022-08-20T11:40:48.529Z,140.65
2022-08-20T11:43:18.292Z,137.88
2022-08-20T11:45:51.152Z,138.80
2022-08-20T11:48:20.279Z,154.48
2022-08-20T11:50:51.953Z,134.38
2022-08-20T11:53:22.430Z,130.43
2022-08-20T11:55:51.572Z,142.48
2022-08-20T11:58:20.671Z,123.13
2022-08-20T12:00:49.678Z,132.57
2022-08-20T12:03:18.625Z,131.50
2022-08-20T12:05:48.516Z,149.32
2022-08-20T12:08:27.654Z,143.18
2022-08-20T12:10:59.385Z,140.75
2022-08-20T12:13:47.279Z,155.57
2022-08-20T12:16:17.557Z,155.00
2022-08-20T12:18:46.500Z,152.20
2022-08-20T12:21:16.062Z,191.88
2022-08-20T12:23:45.147Z,169.63
2022-08-20T12:26:16.979Z,151.38
2022-08-20T12:28:45.800Z,163.40
2022-08-20T12:31:14.482Z,340.13
2022-08-20T12:33:43.460Z,197.77
2022-08-20T12:36:12.513Z,336.33
2022-08-20T12:38:41.365Z,206.05
2022-08-20T12:41:10.144Z,187.38
2022-08-20T12:43:40.271Z,169.43
2022-08-20T12:46:09.014Z,169.80
2022-08-20T12:48:37.872Z,172.60
2022-08-20T12:51:06.752Z,155.93
2022-08-20T12:53:35.532Z,165.13
2022-08-20T12:56:05.854Z,206.90
2022-08-20T12:58:35.100Z,180.27
2022-08-20T13:01:05.343Z,179.20
2022-08-20T13:03:34.089Z,182.50
2022-08-20T13:06:11.880Z,206.88
2022-08-20T13:08:40.575Z,167.02
2022-08-20T13:11:09.292Z,202.77
2022-08-20T13:13:38.011Z,191.55
2022-08-20T13:16:08.475Z,340.25
2022-08-20T13:18:37.424Z,225.60
2022-08-20T13:21:06.303Z,182.30
2022-08-20T13:23:34.966Z,191.82
2022-08-20T13:26:05.005Z,202.20
2022-08-20T13:28:33.715Z,209.02
2022-08-20T13:31:02.479Z,210.20
2022-08-20T13:33:32.872Z,200.52
2022-08-20T13:36:02.550Z,208.05
2022-08-20T13:38:32.738Z,209.65
2022-08-20T13:41:07.643Z,216.80
2022-08-20T13:43:36.288Z,200.75
2022-08-20T13:46:05.153Z,212.32
2022-08-20T13:48:35.836Z,248.50
2022-08-20T13:51:04.537Z,227.63
2022-08-20T13:53:35.819Z,230.73
2022-08-20T13:56:04.799Z,229.52
2022-08-20T13:58:33.453Z,245.75
2022-08-20T14:01:02.379Z,225.20
2022-08-20T14:03:31.097Z,251.88
2022-08-20T14:06:02.154Z,234.23
2022-08-20T14:08:30.856Z,259.58
2022-08-20T14:10:59.817Z,255.40
2022-08-20T14:13:31.166Z,261.55
2022-08-20T14:15:59.819Z,246.32
2022-08-20T14:18:29.059Z,280.95
2022-08-20T14:20:57.769Z,267.80
2022-08-20T14:23:27.814Z,275.80
2022-08-20T14:25:56.575Z,281.48
2022-08-20T14:28:26.380Z,313.50
2022-08-20T14:30:55.629Z,310.83
2022-08-20T14:33:24.857Z,238.13
2022-08-20T14:35:53.903Z,232.95
2022-08-20T14:38:22.902Z,265.85
2022-08-20T14:40:53.124Z,294.10
2022-08-20T14:43:21.978Z,274.38
2022-08-20T14:45:50.719Z,284.20
2022-08-20T14:48:19.423Z,342.67
2022-08-20T14:50:50.216Z,348.27
2022-08-20T14:53:19.693Z,340.05
2022-08-20T14:55:48.384Z,350.48
2022-08-20T14:58:18.481Z,341.85
2022-08-20T15:00:47.312Z,338.75
2022-08-20T15:03:16.062Z,335.83
2022-08-20T15:05:44.713Z,367.52
2022-08-20T15:08:13.774Z,384.20
2022-08-20T15:10:43.116Z,384.77
2022-08-20T15:13:11.769Z,401.85
2022-08-20T15:15:42.010Z,388.30
2022-08-20T15:18:10.921Z,386.63
2022-08-20T15:20:39.708Z,366.10
2022-08-20T15:23:08.794Z,397.35
2022-08-20T15:25:38.372Z,389.02
2022-08-20T15:28:09.974Z,364.05
2022-08-20T15:30:41.382Z,370.33
2022-08-20T15:33:11.042Z,388.15
2022-08-20T15:35:40.180Z,373.98
2022-08-20T15:38:08.940Z,358.77
2022-08-20T15:40:38.247Z,362.92
2022-08-20T15:43:07.566Z,296.17
2022-08-20T15:45:37.173Z,346.80
2022-08-20T15:48:14.524Z,336.45
2022-08-20T15:51:01.863Z,342.58
2022-08-20T15:53:36.927Z,324.00
2022-08-20T15:56:13.899Z,314.23
2022-08-20T15:58:52.725Z,303.50
2022-08-20T16:01:29.877Z,275.38
2022-08-20T16:04:21.885Z,295.10
2022-08-20T16:06:54.174Z,293.23
2022-08-20T16:09:36.688Z,260.55
2022-08-20T16:12:10.744Z,258.45
2022-08-20T16:14:43.297Z,232.45
2022-08-20T16:17:16.537Z,210.63
2022-08-20T16:19:53.317Z,200.80
2022-08-20T16:22:22.954Z,172.13
2022-08-20T16:24:52.105Z,177.00
2022-08-20T16:27:28.840Z,132.60
2022-08-20T16:30:03.214Z,127.55
2022-08-20T16:32:39.740Z,130.60
2022-08-20T16:35:29.665Z,108.93
2022-08-20T16:38:05.407Z,104.65
2022-08-20T16:40:40.268Z,94.70
2022-08-20T16:43:11.983Z,96.10
2022-08-20T16:45:50.906Z,93.90
2022-08-20T16:48:22.544Z,95.15
2022-08-20T16:51:04.372Z,101.10
2022-08-20T16:53:34.308Z,103.30
2022-08-20T16:56:03.308Z,115.25
2022-08-20T16:58:31.900Z,119.88
2022-08-20T17:01:10.215Z,106.53
2022-08-20T17:03:40.811Z,108.85
2022-08-20T17:06:26.234Z,110.65
2022-08-20T17:08:55.331Z,296.13
2022-08-20T17:11:26.730Z,282.17
2022-08-20T17:14:11.991Z,267.73
2022-08-20T17:16:44.545Z,92.25
2022-08-20T17:19:20.843Z,67.72
2022-08-20T17:21:51.111Z,72.78
2022-08-20T17:24:25.697Z,62.80
2022-08-20T17:27:01.282Z,66.50
2022-08-20T17:29:32.651Z,62.50
2022-08-20T17:32:09.903Z,53.78
2022-08-20T17:34:46.898Z,61.30
2022-08-20T17:37:23.997Z,55.55
2022-08-20T17:39:57.142Z,53.97
2022-08-20T17:42:28.363Z,57.42
2022-08-20T17:45:06.373Z,58.13
2022-08-20T17:47:38.447Z,56.47
2022-08-20T17:50:14.096Z,59.92
2022-08-20T17:52:50.259Z,66.25
2022-08-20T17:55:20.444Z,61.35
2022-08-20T17:57:54.505Z,62.70
2022-08-20T18:00:25.921Z,63.78
2022-08-20T18:03:02.164Z,62.60
2022-08-20T18:05:35.356Z,58.33
2022-08-20T18:08:18.557Z,60.17
2022-08-20T18:10:58.265Z,61.45
2022-08-20T18:13:48.102Z,78.53
2022-08-20T18:16:24.753Z,61.85
2022-08-20T18:18:58.083Z,21.40
2022-08-20T18:21:45.890Z,20.73
2022-08-20T18:24:20.278Z,38.25
2022-08-20T18:26:54.286Z,24.70
2022-08-20T18:29:27.905Z,28.40
2022-08-20T18:31:59.274Z,24.05
2022-08-20T18:34:38.145Z,24.77
2022-08-20T18:37:10.467Z,21.00
2022-08-20T18:39:42.804Z,22.90
2022-08-20T18:42:25.895Z,20.50
2022-08-20T18:44:57.151Z,18.13
2022-08-20T18:47:29.341Z,18.98
2022-08-20T18:50:16.206Z,19.00
2022-08-20T18:52:48.023Z,16.23
2022-08-20T18:55:31.807Z,17.95
2022-08-20T18:58:03.205Z,18.98
2022-08-20T19:00:41.585Z,18.10
2022-08-20T19:03:21.519Z,20.65
2022-08-20T19:06:08.635Z,20.42
2022-08-20T19:08:47.070Z,20.55
2022-08-20T19:11:35.227Z,22.08
2022-08-20T19:14:23.524Z,24.23
2022-08-20T19:16:57.307Z,24.08
2022-08-20T19:19:32.222Z,25.23
2022-08-20T19:22:02.702Z,27.83
2022-08-20T19:24:35.244Z,26.48
2022-08-20T19:27:09.430Z,33.83
2022-08-20T19:29:42.278Z,36.05
2022-08-20T19:32:19.126Z,27.08
2022-08-20T19:34:57.623Z,19.60
2022-08-20T19:37:39.927Z,19.80
2022-08-20T19:40:25.304Z,20.83
2022-08-20T19:43:01.841Z,40.88
2022-08-20T19:45:37.455Z,30.85
2022-08-20T19:48:27.161Z,27.58
2022-08-20T19:51:03.019Z,25.10
2022-08-20T19:53:34.239Z,23.92
2022-08-20T19:56:05.065Z,24.25
2022-08-20T19:58:36.743Z,34.30
2022-08-20T20:01:11.403Z,36.08
2022-08-20T20:03:40.274Z,32.80
2022-08-20T20:06:17.499Z,30.40
2022-08-20T20:08:53.497Z,26.77
2022-08-20T20:11:27.442Z,29.00
2022-08-20T20:14:02.893Z,139.73
2022-08-20T20:16:33.931Z,66.18
2022-08-20T20:19:26.642Z,47.10
2022-08-20T20:22:07.009Z,41.05
2022-08-20T20:24:50.114Z,53.72
2022-08-20T20:27:32.501Z,50.35
2022-08-20T20:30:05.626Z,40.42
2022-08-20T20:32:35.051Z,21.55
2022-08-20T20:35:06.092Z,19.67
2022-08-20T20:37:49.696Z,22.08
2022-08-20T20:40:26.546Z,31.88
2022-08-20T20:43:05.311Z,28.90
2022-08-20T20:45:38.412Z,27.45
2022-08-20T20:48:22.554Z,23.60
2022-08-20T20:50:52.912Z,20.42
2022-08-20T20:53:50.879Z,21.38
2022-08-20T20:56:31.981Z,19.13
2022-08-20T20:59:06.089Z,19.38
2022-08-20T21:01:48.220Z,20.08
2022-08-20T21:04:19.022Z,21.60
2022-08-20T21:06:47.725Z,194.95
2022-08-20T21:09:16.951Z,33.13
2022-08-20T21:11:45.987Z,37.83
2022-08-20T21:14:15.082Z,37.95
2022-08-20T21:16:46.234Z,29.13
2022-08-20T21:19:15.402Z,77.00
2022-08-20T21:21:44.659Z,28.17
2022-08-20T21:24:13.375Z,51.10
2022-08-20T21:26:42.748Z,47.90
2022-08-20T21:29:14.766Z,44.17
2022-08-20T21:31:46.473Z,29.85
2022-08-20T21:34:17.592Z,30.73
2022-08-20T21:36:46.655Z,30.00
2022-08-20T21:39:15.948Z,28.08
2022-08-20T21:41:45.476Z,37.95
2022-08-20T21:44:22.778Z,28.42
2022-08-20T21:46:56.484Z,38.60
2022-08-20T21:49:26.623Z,30.23
2022-08-20T21:51:56.574Z,39.38
2022-08-20T21:54:27.462Z,38.00
2022-08-20T21:57:00.298Z,37.38
2022-08-20T21:59:29.270Z,40.55
2022-08-20T22:02:04.019Z,31.30
2022-08-20T22:04:36.153Z,53.85
2022-08-20T22:07:05.342Z,58.33
2022-08-20T22:09:36.275Z,39.25
2022-08-20T22:12:07.192Z,41.75
2022-08-20T22:14:35.915Z,38.03
2022-08-20T22:17:06.491Z,35.60
2022-08-20T22:19:35.210Z,27.88
2022-08-20T22:22:03.892Z,32.85
2022-08-20T22:24:32.623Z,39.10
2022-08-20T22:27:01.248Z,33.00
2022-08-20T22:29:30.018Z,35.65
2022-08-20T22:31:58.805Z,34.10
2022-08-20T22:34:32.653Z,40.20
2022-08-20T22:37:04.562Z,39.83
2022-08-20T22:39:33.331Z,53.25
2022-08-20T22:42:01.988Z,36.38
2022-08-20T22:44:30.711Z,43.50
2022-08-20T22:47:04.795Z,40.13
2022-08-20T22:49:36.788Z,34.30
2022-08-20T22:52:05.759Z,31.45
2022-08-20T22:54:35.767Z,26.55
2022-08-20T22:57:04.525Z,25.30
2022-08-20T22:59:42.201Z,27.17
2022-08-20T23:02:21.812Z,30.35
2022-08-20T23:04:52.179Z,25.95
2022-08-20T23:07:21.144Z,29.83
2022-08-20T23:09:49.947Z,25.80
2022-08-20T23:12:18.614Z,30.05
2022-08-20T23:14:47.369Z,39.50
2022-08-20T23:17:19.323Z,35.67
2022-08-20T23:19:51.033Z,49.45
2022-08-20T23:22:20.844Z,35.17
2022-08-20T23:24:49.703Z,55.63
2022-08-20T23:27:20.064Z,52.58
2022-08-20T23:29:52.064Z,59.70
2022-08-20T23:32:21.123Z,32.10
2022-08-20T23:34:51.401Z,27.35
2022-08-20T23:37:20.333Z,41.60
2022-08-20T23:39:50.133Z,25.90
2022-08-20T23:42:21.757Z,29.83
2022-08-20T23:44:50.703Z,25.17
2022-08-20T23:47:21.721Z,24.45
2022-08-20T23:49:52.372Z,31.80
2022-08-20T23:52:23.064Z,29.95
2022-08-20T23:54:52.119Z,20.13
2022-08-20T23:57:21.225Z,20.80
2022-08-20T23:59:51.283Z,21.85
